Terminal Aerodrome Forecast
Issued by NWS Tampa Bay Area, FL

Home | Current Version | Previous Version | Text Only | Print | Product List | Glossary On
Versions: 1 2 3 4 5 6 7 8 9 10 11 12 13 14 15 16 17 18 19 20 21 22 23 24 25
326
FTUS42 KTBW 232335
TAFTPA
TAF
KTPA 232335Z 2400/2424 08005KT P6SM SCT050 BKN090
     FM240200 VRB04KT P6SM SCT100 BKN250
     FM241400 07006KT P6SM SCT030 BKN060
     FM241700 06006KT P6SM VCTS SCT025CB BKN050=

USA.gov is the U.S. government's official web portal to all federal, state and local government web resources and services.